createdAt,value
2023-03-29T00:02:33.543Z,3.92
2023-03-29T00:05:02.112Z,3.80
2023-03-29T00:07:30.265Z,4.05
2023-03-29T00:09:56.845Z,4.20
2023-03-29T00:12:23.514Z,4.53
2023-03-29T00:14:50.348Z,5.28
2023-03-29T00:17:16.888Z,4.68
2023-03-29T00:19:45.238Z,4.68
2023-03-29T00:22:12.167Z,3.72
2023-03-29T00:24:38.582Z,4.18
2023-03-29T00:27:05.336Z,4.78
2023-03-29T00:29:32.427Z,4.25
2023-03-29T00:31:59.335Z,4.28
2023-03-29T00:34:30.787Z,4.63
2023-03-29T00:36:58.132Z,4.30
2023-03-29T00:39:26.468Z,4.25
2023-03-29T00:41:53.030Z,4.47
2023-03-29T00:44:58.288Z,4.35
2023-03-29T00:47:33.910Z,4.18
2023-03-29T00:50:22.161Z,4.43
2023-03-29T00:52:52.576Z,4.00
2023-03-29T00:55:22.869Z,3.63
2023-03-29T00:57:52.246Z,3.47
2023-03-29T01:00:22.240Z,4.00
2023-03-29T01:02:55.642Z,4.05
2023-03-29T01:05:30.889Z,3.80
2023-03-29T01:10:41.565Z,3.75
2023-03-29T01:13:11.333Z,3.75
2023-03-29T01:15:41.488Z,3.88
2023-03-29T01:18:09.137Z,4.10
2023-03-29T01:21:02.864Z,4.03
2023-03-29T01:24:06.599Z,4.03
2023-03-29T01:27:00.855Z,3.78
2023-03-29T01:29:45.551Z,4.03
2023-03-29T01:32:22.420Z,4.10
2023-03-29T01:34:56.479Z,4.18
2023-03-29T01:37:48.091Z,3.70
2023-03-29T01:40:14.789Z,4.22
2023-03-29T01:42:47.755Z,3.63
2023-03-29T01:45:43.086Z,3.03
2023-03-29T01:48:27.625Z,3.72
2023-03-29T01:51:00.076Z,4.25
2023-03-29T01:53:36.292Z,3.40
2023-03-29T01:56:08.711Z,3.75
2023-03-29T01:58:40.904Z,2.97
2023-03-29T02:01:10.449Z,3.85
2023-03-29T02:03:42.352Z,3.80
2023-03-29T02:06:16.088Z,4.00
2023-03-29T02:08:44.796Z,3.92
2023-03-29T02:11:11.609Z,3.30
2023-03-29T02:13:38.096Z,3.28
2023-03-29T02:16:12.582Z,3.30
2023-03-29T02:18:45.114Z,3.60
2023-03-29T02:21:26.802Z,3.78
2023-03-29T02:23:55.704Z,3.72
2023-03-29T02:26:23.919Z,3.15
2023-03-29T02:28:51.727Z,3.35
2023-03-29T02:31:35.724Z,3.35
2023-03-29T02:34:28.236Z,3.65
2023-03-29T02:36:59.954Z,3.67
2023-03-29T02:39:29.335Z,3.45
2023-03-29T02:41:56.762Z,3.65
2023-03-29T02:44:27.304Z,2.90
2023-03-29T02:46:58.102Z,3.20
2023-03-29T02:49:24.840Z,3.67
2023-03-29T02:51:55.214Z,3.22
2023-03-29T02:54:25.875Z,3.15
2023-03-29T02:57:00.907Z,3.90
2023-03-29T02:59:29.875Z,3.30
2023-03-29T03:01:56.712Z,3.22
2023-03-29T03:04:23.799Z,3.20
2023-03-29T03:06:50.391Z,2.72
2023-03-29T03:09:16.984Z,3.35
2023-03-29T03:11:43.586Z,2.38
2023-03-29T03:14:10.299Z,3.10
2023-03-29T03:16:37.315Z,2.63
2023-03-29T03:19:04.245Z,3.58
2023-03-29T03:21:30.790Z,3.88
2023-03-29T03:23:57.583Z,1.75
2023-03-29T03:26:29.897Z,3.10
2023-03-29T03:28:56.745Z,3.17
2023-03-29T03:31:23.224Z,1.38
2023-03-29T03:33:49.758Z,3.20
2023-03-29T03:36:16.253Z,1.20
2023-03-29T03:38:43.963Z,1.88
2023-03-29T03:41:10.541Z,3.65
2023-03-29T03:43:37.028Z,1.98
2023-03-29T03:46:03.648Z,1.38
2023-03-29T03:48:30.195Z,2.45
2023-03-29T03:50:58.465Z,1.40
2023-03-29T03:53:27.174Z,3.28
2023-03-29T03:55:55.964Z,2.63
2023-03-29T03:58:23.002Z,2.67
2023-03-29T04:00:50.224Z,2.15
2023-03-29T04:03:17.372Z,1.70
2023-03-29T04:05:45.626Z,1.23
2023-03-29T04:08:13.797Z,3.00
2023-03-29T04:10:40.781Z,3.40
2023-03-29T04:13:07.747Z,2.80
2023-03-29T04:15:38.417Z,2.17
2023-03-29T04:18:07.170Z,2.92
2023-03-29T04:20:34.208Z,4.53
2023-03-29T04:23:01.082Z,4.15
2023-03-29T04:25:27.598Z,3.50
2023-03-29T04:27:54.099Z,2.10
2023-03-29T04:30:20.992Z,3.95
2023-03-29T04:32:48.000Z,3.67
2023-03-29T04:35:14.667Z,4.63
2023-03-29T04:37:41.876Z,4.85
2023-03-29T04:40:09.832Z,4.00
2023-03-29T04:42:37.473Z,4.60
2023-03-29T04:45:06.997Z,5.10
2023-03-29T04:47:36.297Z,3.78
2023-03-29T04:50:03.412Z,3.92
2023-03-29T04:52:33.050Z,4.47
2023-03-29T04:55:01.420Z,2.75
2023-03-29T04:57:29.236Z,3.70
2023-03-29T04:59:56.307Z,4.13
2023-03-29T05:02:23.184Z,1.92
2023-03-29T05:04:50.366Z,5.47
2023-03-29T05:07:18.123Z,4.53
2023-03-29T05:09:44.651Z,1.55
2023-03-29T05:12:11.124Z,3.50
2023-03-29T05:14:37.672Z,4.22
2023-03-29T05:17:05.113Z,5.00
2023-03-29T05:19:32.018Z,0.63
2023-03-29T05:21:59.066Z,3.78
2023-03-29T05:24:25.779Z,1.90
2023-03-29T05:26:52.371Z,3.15
2023-03-29T05:29:19.204Z,3.53
2023-03-29T05:31:47.036Z,4.13
2023-03-29T05:34:13.694Z,5.03
2023-03-29T05:36:40.215Z,1.73
2023-03-29T05:39:07.147Z,5.72
2023-03-29T05:41:34.511Z,1.25
2023-03-29T05:44:01.554Z,5.30
2023-03-29T05:46:28.155Z,3.90
2023-03-29T05:48:54.669Z,6.18
2023-03-29T05:51:24.339Z,5.22
2023-03-29T05:53:51.533Z,5.97
2023-03-29T05:56:18.996Z,6.20
2023-03-29T05:58:49.354Z,2.78
2023-03-29T06:01:17.736Z,6.70
2023-03-29T06:03:46.144Z,6.22
2023-03-29T06:06:16.479Z,6.78
2023-03-29T06:08:44.560Z,5.88
2023-03-29T06:11:13.399Z,7.05
2023-03-29T06:13:40.064Z,6.68
2023-03-29T06:16:07.120Z,6.65
2023-03-29T06:18:33.654Z,6.55
2023-03-29T06:21:02.781Z,7.10
2023-03-29T06:23:31.724Z,6.60
2023-03-29T06:26:00.058Z,6.32
2023-03-29T06:28:26.813Z,6.55
2023-03-29T06:30:56.567Z,6.70
2023-03-29T06:33:24.200Z,6.00
2023-03-29T06:35:50.963Z,6.53
2023-03-29T06:38:17.533Z,5.90
2023-03-29T06:40:44.745Z,6.45
2023-03-29T06:43:11.863Z,6.25
2023-03-29T06:45:38.927Z,5.45
2023-03-29T06:48:07.525Z,7.22
2023-03-29T06:50:35.080Z,5.90
2023-03-29T06:53:02.217Z,8.25
2023-03-29T06:55:28.774Z,6.78
2023-03-29T06:57:55.449Z,6.50
2023-03-29T07:00:28.443Z,7.65
2023-03-29T07:02:56.595Z,9.85
2023-03-29T07:05:23.998Z,5.82
2023-03-29T07:07:55.193Z,6.78
2023-03-29T07:10:23.751Z,6.68
2023-03-29T07:12:50.199Z,7.20
2023-03-29T07:15:16.679Z,6.47
2023-03-29T07:17:43.276Z,6.13
2023-03-29T07:20:14.365Z,6.82
2023-03-29T07:22:45.176Z,6.35
2023-03-29T07:25:12.676Z,3.38
2023-03-29T07:27:40.840Z,7.35
2023-03-29T07:30:11.225Z,7.15
2023-03-29T07:32:38.907Z,5.95
2023-03-29T07:35:07.471Z,4.85
2023-03-29T07:37:36.434Z,8.02
2023-03-29T07:40:08.966Z,6.40
2023-03-29T07:42:38.872Z,5.47
2023-03-29T07:45:07.126Z,7.57
2023-03-29T07:47:33.647Z,5.40
2023-03-29T07:50:00.316Z,7.20
2023-03-29T07:52:30.104Z,7.43
2023-03-29T07:54:57.444Z,4.90
2023-03-29T07:57:26.554Z,5.50
2023-03-29T07:59:54.269Z,2.08
2023-03-29T08:02:21.284Z,5.97
2023-03-29T08:04:47.964Z,1.98
2023-03-29T08:07:18.801Z,4.68
2023-03-29T08:09:45.790Z,2.67
2023-03-29T08:12:12.613Z,2.70
2023-03-29T08:14:39.062Z,3.90
2023-03-29T08:17:05.794Z,4.85
2023-03-29T08:19:32.350Z,3.90
2023-03-29T08:22:00.544Z,4.97
2023-03-29T08:24:27.279Z,3.15
2023-03-29T08:26:53.924Z,2.60
2023-03-29T08:29:20.641Z,5.25
2023-03-29T08:31:47.177Z,2.53
2023-03-29T08:34:13.985Z,5.07
2023-03-29T08:36:40.535Z,6.45
2023-03-29T08:39:07.094Z,5.45
2023-03-29T08:41:48.526Z,2.33
2023-03-29T08:44:38.315Z,1.67
2023-03-29T08:47:11.552Z,4.50
2023-03-29T08:49:42.543Z,3.67
2023-03-29T08:52:21.238Z,4.72
2023-03-29T08:54:52.085Z,4.07
2023-03-29T08:57:32.606Z,0.82
2023-03-29T09:00:02.270Z,3.08
2023-03-29T09:02:33.993Z,2.72
2023-03-29T09:05:14.109Z,1.85
2023-03-29T09:07:40.622Z,3.13
2023-03-29T09:10:14.570Z,2.72
2023-03-29T09:13:03.345Z,4.65
2023-03-29T09:16:00.657Z,3.10
2023-03-29T09:18:35.380Z,2.78
2023-03-29T09:21:31.358Z,3.28
2023-03-29T09:24:15.665Z,4.00
2023-03-29T09:26:48.820Z,4.72
2023-03-29T09:29:25.392Z,2.15
2023-03-29T09:31:54.709Z,1.55
2023-03-29T09:34:24.153Z,6.63
2023-03-29T09:37:03.509Z,7.15
2023-03-29T09:39:30.042Z,6.00
2023-03-29T09:42:04.468Z,6.22
2023-03-29T09:44:52.745Z,6.27
2023-03-29T09:47:29.563Z,6.28
2023-03-29T09:50:07.323Z,6.28
2023-03-29T09:52:37.218Z,5.88
2023-03-29T09:55:05.861Z,4.95
2023-03-29T09:57:32.476Z,3.60
2023-03-29T10:00:04.044Z,2.63
2023-03-29T10:02:31.815Z,3.00
2023-03-29T10:05:04.046Z,4.00
2023-03-29T10:07:44.575Z,5.28
2023-03-29T10:10:22.186Z,2.10
2023-03-29T10:12:54.382Z,1.52
2023-03-29T10:15:29.229Z,4.50
2023-03-29T10:18:07.394Z,4.75
2023-03-29T10:20:39.846Z,3.47
2023-03-29T10:23:08.958Z,4.60
2023-03-29T10:25:42.981Z,2.85
2023-03-29T10:28:17.610Z,4.15
2023-03-29T10:30:47.559Z,3.77
2023-03-29T10:33:21.121Z,2.50
2023-03-29T10:35:48.697Z,3.83
2023-03-29T10:38:21.525Z,2.90
2023-03-29T10:40:53.166Z,4.32
2023-03-29T10:43:19.629Z,2.17
2023-03-29T10:45:51.260Z,3.65
2023-03-29T10:48:19.369Z,1.85
2023-03-29T10:50:52.915Z,4.63
2023-03-29T10:53:26.272Z,2.75
2023-03-29T10:56:14.206Z,4.20
2023-03-29T10:58:52.709Z,3.17
2023-03-29T11:01:38.717Z,4.72
2023-03-29T11:04:20.787Z,3.83
2023-03-29T11:07:13.402Z,2.53
2023-03-29T11:10:04.869Z,2.92
2023-03-29T11:12:56.174Z,3.05
2023-03-29T11:15:51.807Z,4.68
2023-03-29T11:18:40.430Z,3.85
2023-03-29T11:21:12.619Z,3.28
2023-03-29T11:23:57.367Z,2.30
2023-03-29T11:26:45.211Z,2.40
2023-03-29T11:29:33.465Z,3.10
2023-03-29T11:32:07.310Z,3.67
2023-03-29T11:34:59.541Z,3.08
2023-03-29T11:37:35.557Z,1.88
2023-03-29T11:40:34.261Z,4.28
2023-03-29T11:43:07.807Z,3.72
2023-03-29T11:45:44.398Z,2.33
2023-03-29T11:48:21.194Z,1.95
2023-03-29T11:51:13.992Z,2.05
2023-03-29T11:53:56.610Z,1.60
2023-03-29T11:56:29.734Z,2.15
2023-03-29T11:59:04.713Z,2.25
2023-03-29T12:01:39.840Z,2.45
2023-03-29T12:04:17.741Z,4.55
2023-03-29T12:06:54.748Z,2.25
2023-03-29T12:09:41.346Z,1.95
2023-03-29T12:12:10.178Z,2.60
2023-03-29T12:14:37.228Z,2.83
2023-03-29T12:17:07.060Z,4.13
2023-03-29T12:19:43.249Z,2.63
2023-03-29T12:22:10.541Z,2.40
2023-03-29T12:24:41.643Z,4.00
2023-03-29T12:27:37.362Z,2.60
2023-03-29T12:30:25.708Z,2.95
2023-03-29T12:32:56.091Z,3.22
2023-03-29T12:35:34.116Z,0.98
2023-03-29T12:38:21.111Z,4.15
2023-03-29T12:40:54.691Z,2.70
2023-03-29T12:43:38.539Z,1.40
2023-03-29T12:46:25.857Z,2.17
2023-03-29T12:49:09.463Z,2.25
2023-03-29T12:51:39.380Z,2.47
2023-03-29T12:54:08.741Z,3.15
2023-03-29T12:56:40.803Z,2.92
2023-03-29T12:59:09.960Z,1.80
2023-03-29T13:01:41.479Z,2.42
2023-03-29T13:04:16.840Z,1.58
2023-03-29T13:09:30.168Z,2.25
2023-03-29T13:12:04.791Z,2.35
2023-03-29T13:14:37.191Z,2.67
2023-03-29T13:17:17.923Z,1.02
2023-03-29T13:20:02.540Z,1.58
2023-03-29T13:22:41.104Z,3.20
2023-03-29T13:25:44.569Z,4.00
2023-03-29T13:28:29.392Z,1.83
2023-03-29T13:30:58.861Z,2.47
2023-03-29T13:33:53.219Z,4.28
2023-03-29T13:36:44.310Z,4.47
2023-03-29T13:39:19.296Z,2.63
2023-03-29T13:41:51.737Z,2.75
2023-03-29T13:44:27.474Z,3.40
2023-03-29T13:47:14.105Z,2.05
2023-03-29T13:49:44.553Z,2.35
2023-03-29T13:52:26.402Z,2.60
2023-03-29T13:54:58.181Z,4.50
2023-03-29T13:57:42.230Z,3.63
2023-03-29T14:00:28.617Z,2.50
2023-03-29T14:02:58.310Z,3.58
2023-03-29T14:05:32.201Z,1.48
2023-03-29T14:08:08.416Z,3.17
2023-03-29T14:10:40.745Z,2.50
2023-03-29T14:13:12.585Z,3.03
2023-03-29T14:16:02.702Z,1.63
2023-03-29T14:18:37.250Z,4.70
2023-03-29T14:21:04.489Z,0.85
2023-03-29T14:23:33.972Z,3.35
2023-03-29T14:26:12.881Z,4.45
2023-03-29T14:28:46.900Z,3.00
2023-03-29T14:31:25.698Z,4.55
2023-03-29T14:33:57.134Z,3.53
2023-03-29T14:36:25.105Z,4.22
2023-03-29T14:39:05.366Z,3.08
2023-03-29T14:41:34.558Z,3.95
2023-03-29T14:44:01.539Z,3.70
2023-03-29T14:46:28.211Z,2.70
2023-03-29T14:48:56.374Z,2.53
2023-03-29T14:51:28.717Z,2.58
2023-03-29T14:53:56.033Z,1.85
2023-03-29T14:56:25.400Z,1.75
2023-03-29T14:58:56.545Z,3.63
2023-03-29T15:01:25.966Z,2.45
2023-03-29T15:04:03.319Z,2.90
2023-03-29T15:06:31.601Z,1.10
2023-03-29T15:09:05.964Z,3.15
2023-03-29T15:11:34.112Z,1.52
2023-03-29T15:14:04.675Z,1.15
2023-03-29T15:16:32.307Z,2.50
2023-03-29T15:19:01.584Z,2.55
2023-03-29T15:21:34.239Z,1.38
2023-03-29T15:24:03.145Z,1.67
2023-03-29T15:26:35.166Z,1.80
2023-03-29T15:29:07.542Z,1.73
2023-03-29T15:31:37.273Z,2.58
2023-03-29T15:34:11.881Z,2.50
2023-03-29T15:36:43.561Z,1.33
2023-03-29T15:39:15.361Z,1.88
2023-03-29T15:41:42.571Z,1.27
2023-03-29T15:44:09.684Z,2.78
2023-03-29T15:46:36.341Z,3.60
2023-03-29T15:49:03.944Z,2.97
2023-03-29T15:51:30.528Z,2.13
2023-03-29T15:53:57.022Z,1.02
2023-03-29T15:56:23.524Z,1.38
2023-03-29T15:58:50.009Z,1.98
2023-03-29T16:01:37.456Z,2.05
2023-03-29T16:04:05.529Z,1.20
2023-03-29T16:06:33.452Z,1.17
2023-03-29T16:09:00.484Z,0.80
2023-03-29T16:11:28.281Z,1.05
2023-03-29T16:13:56.341Z,2.00
2023-03-29T16:16:23.240Z,2.30
2023-03-29T16:18:49.816Z,2.75
2023-03-29T16:21:18.701Z,1.88
2023-03-29T16:23:46.057Z,2.17
2023-03-29T16:26:14.781Z,2.60
2023-03-29T16:28:41.315Z,2.67
2023-03-29T16:31:11.587Z,0.90
2023-03-29T16:33:38.386Z,2.13
2023-03-29T16:36:05.343Z,1.25
2023-03-29T16:38:33.708Z,1.80
2023-03-29T16:41:00.679Z,1.55
2023-03-29T16:43:27.688Z,2.70
2023-03-29T16:45:54.498Z,1.27
2023-03-29T16:48:21.280Z,3.25
2023-03-29T16:50:50.874Z,1.88
2023-03-29T16:53:18.646Z,3.03
2023-03-29T16:55:46.439Z,3.47
2023-03-29T16:58:13.254Z,4.00
2023-03-29T17:00:40.923Z,3.30
2023-03-29T17:03:07.959Z,3.55
2023-03-29T17:05:39.911Z,4.35
2023-03-29T17:08:06.737Z,4.03
2023-03-29T17:10:33.214Z,3.58
2023-03-29T17:12:59.706Z,2.85
2023-03-29T17:15:26.272Z,3.55
2023-03-29T17:17:52.751Z,3.15
2023-03-29T17:20:19.345Z,3.70
2023-03-29T17:22:45.849Z,3.08
2023-03-29T17:25:12.302Z,2.55
2023-03-29T17:27:38.849Z,2.60
2023-03-29T17:30:06.496Z,3.00
2023-03-29T17:32:33.126Z,2.90
2023-03-29T17:34:59.690Z,3.05
2023-03-29T17:37:27.757Z,2.95
2023-03-29T17:39:54.485Z,3.50
2023-03-29T17:42:21.123Z,3.50
2023-03-29T17:44:47.610Z,2.97
2023-03-29T17:47:14.059Z,3.08
2023-03-29T17:49:40.548Z,3.70
2023-03-29T17:52:07.125Z,3.17
2023-03-29T17:54:33.621Z,3.05
2023-03-29T17:57:00.224Z,2.97
2023-03-29T17:59:26.791Z,3.67
2023-03-29T18:01:53.363Z,3.95
2023-03-29T18:04:19.855Z,3.70
2023-03-29T18:06:46.416Z,2.95
2023-03-29T18:09:13.189Z,2.92
2023-03-29T18:11:39.667Z,3.20
2023-03-29T18:14:06.332Z,3.60
2023-03-29T18:16:33.100Z,5.25
2023-03-29T18:18:59.651Z,3.40
2023-03-29T18:21:27.367Z,3.65
2023-03-29T18:23:56.646Z,3.20
2023-03-29T18:26:23.551Z,4.85
2023-03-29T18:28:50.887Z,3.67
2023-03-29T18:31:19.931Z,3.00
2023-03-29T18:33:47.584Z,3.17
2023-03-29T18:36:14.634Z,3.25
2023-03-29T18:38:43.103Z,2.75
2023-03-29T18:41:12.104Z,3.20
2023-03-29T18:43:39.781Z,3.03
2023-03-29T18:46:07.792Z,2.47
2023-03-29T18:48:39.046Z,2.65
2023-03-29T18:51:07.503Z,3.28
2023-03-29T18:53:35.773Z,3.28
2023-03-29T18:56:03.440Z,3.30
2023-03-29T18:58:30.677Z,3.65
2023-03-29T19:01:03.649Z,4.35
2023-03-29T19:03:31.357Z,3.25
2023-03-29T19:05:58.161Z,3.42
2023-03-29T19:08:26.245Z,3.33
2023-03-29T19:10:54.027Z,3.15
2023-03-29T19:13:20.521Z,3.10
2023-03-29T19:15:47.580Z,3.05
2023-03-29T19:18:14.123Z,3.17
2023-03-29T19:20:40.805Z,3.22
2023-03-29T19:23:07.305Z,2.53
2023-03-29T19:25:33.902Z,2.60
2023-03-29T19:28:00.471Z,2.70
2023-03-29T19:30:27.107Z,2.60
2023-03-29T19:32:53.660Z,2.88
2023-03-29T19:35:20.303Z,2.08
2023-03-29T19:37:46.918Z,2.50
2023-03-29T19:40:13.501Z,3.08
2023-03-29T19:42:40.481Z,2.75
2023-03-29T19:45:09.391Z,3.05
2023-03-29T19:47:36.383Z,3.00
2023-03-29T19:50:04.589Z,2.90
2023-03-29T19:52:32.777Z,2.55
2023-03-29T19:54:59.355Z,2.55
2023-03-29T19:57:25.856Z,2.78
2023-03-29T19:59:53.885Z,2.30
2023-03-29T20:02:20.536Z,2.97
2023-03-29T20:04:47.116Z,2.60
2023-03-29T20:07:13.682Z,2.70
2023-03-29T20:09:43.886Z,2.85
2023-03-29T20:12:11.676Z,2.85
2023-03-29T20:14:40.224Z,2.90
2023-03-29T20:17:07.347Z,3.03
2023-03-29T20:19:36.473Z,3.40
2023-03-29T20:22:04.406Z,3.00
2023-03-29T20:24:32.533Z,2.92
2023-03-29T20:26:59.080Z,3.08
2023-03-29T20:29:25.601Z,2.60
2023-03-29T20:31:52.195Z,3.10
2023-03-29T20:34:18.897Z,3.30
2023-03-29T20:36:46.855Z,4.03
2023-03-29T20:39:17.552Z,3.42
2023-03-29T20:41:47.542Z,2.92
2023-03-29T20:44:16.731Z,3.00
2023-03-29T20:46:54.395Z,2.58
2023-03-29T20:49:26.382Z,3.42
2023-03-29T20:51:58.578Z,3.30
2023-03-29T20:54:26.491Z,3.17
2023-03-29T20:56:54.737Z,3.17
2023-03-29T20:59:22.786Z,3.08
2023-03-29T21:01:50.186Z,3.03
2023-03-29T21:04:17.526Z,2.25
2023-03-29T21:06:45.664Z,2.85
2023-03-29T21:09:13.635Z,2.75
2023-03-29T21:11:40.229Z,2.95
2023-03-29T21:14:06.928Z,3.40
2023-03-29T21:16:33.391Z,2.92
2023-03-29T21:18:59.868Z,2.78
2023-03-29T21:21:26.420Z,2.80
2023-03-29T21:23:52.925Z,2.92
2023-03-29T21:26:19.618Z,2.58
2023-03-29T21:28:48.491Z,3.22
2023-03-29T21:31:15.060Z,3.10
2023-03-29T21:33:41.587Z,2.95
2023-03-29T21:36:08.365Z,3.35
2023-03-29T21:38:34.934Z,2.90
2023-03-29T21:41:02.724Z,2.88
2023-03-29T21:43:29.436Z,2.85
2023-03-29T21:45:57.584Z,3.00
2023-03-29T21:48:24.172Z,2.40
2023-03-29T21:50:50.999Z,3.50
2023-03-29T21:53:18.298Z,3.20
2023-03-29T21:55:44.825Z,3.03
2023-03-29T21:58:11.347Z,2.92
2023-03-29T22:00:37.834Z,2.88
2023-03-29T22:03:04.358Z,2.97
2023-03-29T22:05:31.181Z,2.92
2023-03-29T22:07:58.746Z,2.55
2023-03-29T22:10:25.475Z,2.88
2023-03-29T22:12:52.514Z,2.97
2023-03-29T22:15:20.642Z,3.00
2023-03-29T22:17:47.903Z,3.20
2023-03-29T22:20:15.342Z,2.78
2023-03-29T22:22:49.642Z,2.92
2023-03-29T22:25:17.925Z,2.72
2023-03-29T22:27:47.114Z,2.20
2023-03-29T22:30:15.049Z,1.23
2023-03-29T22:32:41.680Z,3.35
2023-03-29T22:35:09.020Z,2.53
2023-03-29T22:37:43.600Z,2.67
2023-03-29T22:40:11.546Z,3.10
2023-03-29T22:42:38.319Z,3.35
2023-03-29T22:45:06.420Z,2.20
2023-03-29T22:47:33.098Z,1.38
2023-03-29T22:49:59.593Z,2.25
2023-03-29T22:52:26.116Z,1.95
2023-03-29T22:54:52.569Z,2.40
2023-03-29T22:57:19.109Z,2.38
2023-03-29T22:59:45.644Z,2.72
2023-03-29T23:02:12.085Z,2.53
2023-03-29T23:04:38.825Z,2.55
2023-03-29T23:07:06.425Z,2.88
2023-03-29T23:09:32.912Z,1.40
2023-03-29T23:12:01.071Z,2.50
2023-03-29T23:14:27.852Z,2.30
2023-03-29T23:16:54.362Z,2.15
2023-03-29T23:19:21.060Z,2.13
2023-03-29T23:21:47.493Z,2.28
2023-03-29T23:24:18.868Z,2.75
2023-03-29T23:26:45.816Z,4.82
2023-03-29T23:29:12.494Z,2.65
2023-03-29T23:31:38.993Z,2.30
2023-03-29T23:34:05.510Z,2.88
2023-03-29T23:36:32.004Z,2.63
2023-03-29T23:38:59.521Z,3.10
2023-03-29T23:41:30.442Z,2.03
2023-03-29T23:43:57.672Z,3.05
2023-03-29T23:46:24.629Z,1.80
2023-03-29T23:48:51.397Z,1.42
2023-03-29T23:51:22.545Z,2.38
2023-03-29T23:53:49.573Z,2.75
2023-03-29T23:56:16.250Z,2.13
2023-03-29T23:58:42.813Z,2.75
